KFVE

Northern Aroostook Regional Airport

Frenchville, Maine, USA
METAR KFVE 212053Z AUTO 33011KT 10SM SCT030 BKN038 OVC045 01/M06 A2967 RMK AO2 SLP056 T00111061 53010
Observed Flight Rules
Oct-21 @ 20:53 UTC (52 minutes ago) Visual Flight Rules
Wind Visibility Clouds
330° at 11 knots 10 miles
  • Scattered at 3,000' AGL
  • Broken at 3,800' AGL
  • Overcast at 4,500' AGL
Temperatures Readings
Current 1°C / 34°F
Dewpoint -6°C / 21°F
Humidity 60%
Altimeter 29.67" Hg
Pressure 1005.6 hPa
Elevation 301
METAR KFVE 212053Z AUTO 33011KT 10SM SCT030 BKN038 OVC045 01/M06 A2967 RMK AO2 SLP056 T00111061 53010
Observed Flight Rules
Oct-21 @ 20:53 UTC
(52 minutes ago)
VFR
Wind Visibility
330° at 11 knots 10 miles
Clouds
  • Scattered at 3,000' AGL
  • Broken at 3,800' AGL
  • Overcast at 4,500' AGL
Temperature Dewpoint
1°C / 34°F -6°C / 21°F
Humidity Altimeter Pressure
60% 29.67" Hg 1005.6 hPa